TimeCEST,TemperatureF,Dew PointF,Humidity,Sea Level PressureIn,VisibilityMPH,Wind Direction,Wind SpeedMPH,Gust SpeedMPH,PrecipitationIn,Events,Conditions,WindDirDegrees,DateUTC
1:55 AM,42.8,41.0,93,30.30,6.2,WNW,5.8,-,N/A,,Overcast,300,2013-09-01 23:55:00
2:00 AM,43,40,85,,6,WNW,5.8,,,,Partly Cloudy,300,2013-09-02 00:00:00
4:55 AM,42.8,35.6,76,30.30,6.2,West,4.6,-,N/A,,Scattered Clouds,280,2013-09-02 02:55:00
5:55 AM,42.8,33.8,70,30.30,-9999.0,NW,3.5,-,N/A,,Clear,320,2013-09-02 03:55:00
6:55 AM,42.8,32.0,66,30.30,-9999.0,NNW,5.8,-,N/A,,Clear,330,2013-09-02 04:55:00
7:55 AM,42.8,32.0,66,30.30,-9999.0,NNW,8.1,-,N/A,,Clear,330,2013-09-02 05:55:00
8:55 AM,42.8,19.4,39,30.33,-9999.0,WNW,9.2,-,N/A,,Clear,300,2013-09-02 06:55:00
9:55 AM,46.4,23.0,40,30.33,-9999.0,WNW,11.5,-,N/A,,Clear,300,2013-09-02 07:55:00
10:55 AM,48.2,24.8,40,30.33,-9999.0,West,10.4,-,N/A,,Clear,280,2013-09-02 08:55:00
11:00 AM,48,25,28,,34,West,10.4,,,,Scattered Clouds,280,2013-09-02 09:00:00
11:55 AM,50.0,24.8,37,30.33,6.2,West,15.0,-,N/A,,Partly Cloudy,260,2013-09-02 09:55:00
12:55 PM,51.8,26.6,38,30.33,6.2,WNW,13.8,-,N/A,,Partly Cloudy,290,2013-09-02 10:55:00
1:55 PM,51.8,26.6,38,30.33,6.2,West,17.3,-,N/A,,Partly Cloudy,270,2013-09-02 11:55:00
2:00 PM,52,27,26,,47,West,17.3,,,,Scattered Clouds,270,2013-09-02 12:00:00
2:55 PM,53.6,28.4,38,30.33,6.2,West,12.7,-,N/A,,Partly Cloudy,270,2013-09-02 12:55:00
3:55 PM,53.6,30.2,41,30.33,6.2,WNW,15.0,-,N/A,,Partly Cloudy,300,2013-09-02 13:55:00
4:55 PM,53.6,32.0,44,30.33,6.2,NW,15.0,-,N/A,,Mostly Cloudy,310,2013-09-02 14:55:00
5:00 PM,54,32,30,,47,NW,15.0,,,,Mostly Cloudy,310,2013-09-02 15:00:00
5:55 PM,51.8,32.0,47,30.33,6.2,WNW,12.7,-,N/A,,Mostly Cloudy,300,2013-09-02 15:55:00
6:55 PM,53.6,35.6,51,30.33,6.2,WNW,12.7,-,N/A,,Mostly Cloudy,290,2013-09-02 16:55:00
7:55 PM,48.2,32.0,54,30.33,6.2,WNW,15.0,-,N/A,,Mostly Cloudy,300,2013-09-02 17:55:00
8:00 PM,48,32,41,,22,WNW,15.0,,,,Mostly Cloudy,300,2013-09-02 18:00:00
10:55 PM,46.4,32.0,57,30.39,-9999.0,WNW,5.8,-,N/A,,Clear,300,2013-09-02 20:55:00
11:00 PM,47,33,46,,6,WNW,5.8,,,,Scattered Clouds,300,2013-09-02 21:00:00